Oma, Mississippi
Current Conditions -  °F | °C
As of 4:55 AM on Sunday 23 Nov 2014 (Local Time) from K1R7 Reporting Station
Haze Haze  
Wind Chill: 61°   Ceiling: 300
Heat Index: 61°   Visibility: 5mi
Dew Point: 61°   Wind: 6mph
Humidity: 100%   Direction: 120°ESE
Pressure: 29.78"   Gusts: NA
Location:  31.4742°N, 90.119°W
Report Text: K1R7 231055Z AUTO 12005KT 5SM BR OVC003 16/16 A2978 RMK AO2 LTG DSNT S
Loading
Personal Weather Stations






























Interactive Weather Map New forecast layout! Learn more

10-Day Weather Forecast

Advertisements
Track Severe Weather on mobile